createdAt,value
2023-03-31T00:00:46.796Z,83.00
2023-03-31T00:03:22.256Z,83.80
2023-03-31T00:05:53.470Z,83.70
2023-03-31T00:08:21.243Z,83.80
2023-03-31T00:10:48.383Z,83.40
2023-03-31T00:13:15.514Z,84.50
2023-03-31T00:15:42.352Z,84.50
2023-03-31T00:18:08.993Z,84.50
2023-03-31T00:20:38.090Z,84.10
2023-03-31T00:23:10.833Z,84.10
2023-03-31T00:25:41.789Z,84.10
2023-03-31T00:28:08.431Z,84.70
2023-03-31T00:30:35.246Z,84.30
2023-03-31T00:33:01.872Z,84.00
2023-03-31T00:35:28.635Z,84.40
2023-03-31T00:37:57.911Z,84.70
2023-03-31T00:40:24.702Z,84.80
2023-03-31T00:42:51.353Z,85.40
2023-03-31T00:45:25.335Z,85.70
2023-03-31T00:48:10.381Z,85.90
2023-03-31T00:50:57.639Z,85.90
2023-03-31T00:53:30.892Z,85.40
2023-03-31T00:56:03.053Z,85.10
2023-03-31T00:58:33.189Z,85.00
2023-03-31T01:01:04.099Z,85.60
2023-03-31T01:03:33.439Z,85.50
2023-03-31T01:06:07.104Z,85.80
2023-03-31T01:08:36.664Z,86.00
2023-03-31T01:11:07.120Z,85.60
2023-03-31T01:13:37.105Z,86.30
2023-03-31T01:16:04.059Z,85.90
2023-03-31T01:18:34.984Z,85.50
2023-03-31T01:21:20.278Z,85.90
2023-03-31T01:24:07.953Z,86.30
2023-03-31T01:26:56.267Z,86.50
2023-03-31T01:29:36.622Z,86.90
2023-03-31T01:32:38.427Z,86.80
2023-03-31T01:35:38.674Z,86.40
2023-03-31T01:38:21.300Z,87.40
2023-03-31T01:40:55.647Z,87.30
2023-03-31T01:43:49.239Z,87.20
2023-03-31T01:46:36.224Z,87.80
2023-03-31T01:49:11.483Z,88.60
2023-03-31T01:51:53.767Z,88.50
2023-03-31T01:54:22.785Z,88.90
2023-03-31T01:56:57.730Z,89.00
2023-03-31T01:59:28.388Z,88.60
2023-03-31T02:02:02.499Z,88.60
2023-03-31T02:04:37.502Z,89.60
2023-03-31T02:07:09.381Z,90.10
2023-03-31T02:09:41.701Z,90.10
2023-03-31T02:12:11.763Z,90.10
2023-03-31T02:14:43.168Z,90.20
2023-03-31T02:17:18.094Z,89.80
2023-03-31T02:19:49.286Z,90.10
2023-03-31T02:22:19.593Z,90.40
2023-03-31T02:24:48.790Z,90.70
2023-03-31T02:27:35.346Z,90.40
2023-03-31T02:30:03.836Z,90.20
2023-03-31T02:32:44.839Z,90.80
2023-03-31T02:35:22.122Z,90.60
2023-03-31T02:37:53.743Z,90.90
2023-03-31T02:40:22.728Z,91.00
2023-03-31T02:42:49.640Z,91.40
2023-03-31T02:45:42.973Z,91.00
2023-03-31T02:48:34.647Z,91.70
2023-03-31T02:51:48.719Z,91.30
2023-03-31T02:54:47.818Z,91.30
2023-03-31T02:57:22.830Z,91.60
2023-03-31T03:00:08.471Z,91.40
2023-03-31T03:03:07.396Z,91.80
2023-03-31T03:05:41.562Z,91.70
2023-03-31T03:08:26.174Z,91.70
2023-03-31T03:11:08.007Z,92.30
2023-03-31T03:13:52.837Z,92.30
2023-03-31T03:16:32.892Z,92.00
2023-03-31T03:19:02.095Z,91.90
2023-03-31T03:21:28.986Z,92.50
2023-03-31T03:23:55.766Z,92.50
2023-03-31T03:26:23.931Z,92.50
2023-03-31T03:28:51.399Z,92.60
2023-03-31T03:31:18.642Z,92.20
2023-03-31T03:33:45.429Z,92.30
2023-03-31T03:36:12.126Z,92.60
2023-03-31T03:38:38.838Z,92.70
2023-03-31T03:41:05.785Z,92.60
2023-03-31T03:43:32.421Z,92.90
2023-03-31T03:45:59.139Z,92.90
2023-03-31T03:48:26.586Z,92.80
2023-03-31T03:50:54.189Z,93.10
2023-03-31T03:53:21.280Z,92.70
2023-03-31T03:55:49.642Z,93.10
2023-03-31T03:58:17.195Z,92.70
2023-03-31T04:00:45.305Z,92.40
2023-03-31T04:03:12.648Z,92.70
2023-03-31T04:05:39.387Z,92.40
2023-03-31T04:08:08.321Z,92.50
2023-03-31T04:10:35.753Z,93.20
2023-03-31T04:13:02.501Z,93.10
2023-03-31T04:15:29.280Z,92.90
2023-03-31T04:17:58.302Z,92.80
2023-03-31T04:20:27.852Z,93.20
2023-03-31T04:22:54.820Z,92.90
2023-03-31T04:25:22.645Z,92.60
2023-03-31T04:27:55.828Z,92.60
2023-03-31T04:30:24.797Z,92.50
2023-03-31T04:32:56.304Z,92.50
2023-03-31T04:35:25.057Z,92.30
2023-03-31T04:37:58.629Z,92.20
2023-03-31T04:40:25.978Z,92.10
2023-03-31T04:42:52.677Z,92.10
2023-03-31T04:45:19.469Z,92.40
2023-03-31T04:47:46.135Z,92.50
2023-03-31T04:50:16.752Z,92.50
2023-03-31T04:52:44.989Z,92.90
2023-03-31T04:55:11.783Z,92.80
2023-03-31T04:57:38.485Z,93.10
2023-03-31T05:00:07.848Z,93.00
2023-03-31T05:02:34.825Z,93.30
2023-03-31T05:05:01.540Z,93.60
2023-03-31T05:07:28.135Z,93.20
2023-03-31T05:09:54.698Z,93.10
2023-03-31T05:12:21.483Z,93.00
2023-03-31T05:14:48.143Z,93.00
2023-03-31T05:17:14.797Z,93.00
2023-03-31T05:19:41.514Z,92.90
2023-03-31T05:22:08.150Z,93.10
2023-03-31T05:24:34.894Z,93.00
2023-03-31T05:27:02.018Z,93.30
2023-03-31T05:29:29.609Z,93.10
2023-03-31T05:31:56.260Z,93.00
2023-03-31T05:34:22.857Z,93.10
2023-03-31T05:36:51.257Z,93.20
2023-03-31T05:39:18.690Z,93.60
2023-03-31T05:41:45.549Z,93.60
2023-03-31T05:44:12.433Z,93.80
2023-03-31T05:46:39.071Z,93.50
2023-03-31T05:49:06.995Z,93.20
2023-03-31T05:51:34.126Z,93.50
2023-03-31T05:54:00.788Z,93.90
2023-03-31T05:56:27.536Z,93.60
2023-03-31T05:58:54.293Z,93.70
2023-03-31T06:01:22.745Z,93.60
2023-03-31T06:03:49.826Z,93.50
2023-03-31T06:06:16.637Z,93.40
2023-03-31T06:08:45.573Z,93.90
2023-03-31T06:11:21.130Z,93.80
2023-03-31T06:13:48.340Z,93.70
2023-03-31T06:16:17.298Z,93.60
2023-03-31T06:18:44.857Z,93.50
2023-03-31T06:21:14.875Z,93.80
2023-03-31T06:23:41.785Z,93.80
2023-03-31T06:26:08.864Z,93.70
2023-03-31T06:28:36.548Z,93.90
2023-03-31T06:31:12.646Z,93.50
2023-03-31T06:33:41.172Z,93.60
2023-03-31T06:36:08.820Z,93.70
2023-03-31T06:38:38.219Z,93.80
2023-03-31T06:41:06.578Z,94.00
2023-03-31T06:43:33.879Z,93.80
2023-03-31T06:46:01.339Z,93.90
2023-03-31T06:48:28.501Z,93.90
2023-03-31T06:50:58.803Z,93.60
2023-03-31T06:53:25.702Z,93.90
2023-03-31T06:55:52.350Z,93.60
2023-03-31T06:58:19.034Z,93.60
2023-03-31T07:00:48.430Z,93.80
2023-03-31T07:03:18.749Z,93.50
2023-03-31T07:05:53.367Z,93.70
2023-03-31T07:08:20.479Z,93.60
2023-03-31T07:10:48.636Z,93.80
2023-03-31T07:13:18.559Z,93.80
2023-03-31T07:15:48.422Z,93.60
2023-03-31T07:18:16.027Z,93.40
2023-03-31T07:20:43.687Z,93.20
2023-03-31T07:23:10.608Z,93.20
2023-03-31T07:25:37.359Z,93.10
2023-03-31T07:28:05.069Z,93.10
2023-03-31T07:30:32.387Z,93.10
2023-03-31T07:32:59.507Z,93.10
2023-03-31T07:35:26.267Z,93.00
2023-03-31T07:37:53.104Z,93.40
2023-03-31T07:40:23.830Z,93.40
2023-03-31T07:42:52.177Z,93.00
2023-03-31T07:45:21.046Z,93.00
2023-03-31T07:47:48.937Z,93.40
2023-03-31T07:50:16.585Z,93.20
2023-03-31T07:52:46.672Z,93.30
2023-03-31T07:55:14.427Z,93.10
2023-03-31T07:57:42.040Z,93.40
2023-03-31T08:00:12.302Z,93.50
2023-03-31T08:02:40.983Z,93.60
2023-03-31T08:05:07.926Z,93.60
2023-03-31T08:07:40.001Z,93.80
2023-03-31T08:10:10.197Z,93.70
2023-03-31T08:12:36.921Z,93.90
2023-03-31T08:15:04.134Z,94.10
2023-03-31T08:17:31.054Z,94.50
2023-03-31T08:19:59.792Z,94.20
2023-03-31T08:22:29.511Z,93.80
2023-03-31T08:24:56.148Z,93.90
2023-03-31T08:27:22.849Z,93.70
2023-03-31T08:29:50.013Z,93.90
2023-03-31T08:32:16.688Z,93.30
2023-03-31T08:34:43.689Z,93.50
2023-03-31T08:37:10.578Z,93.20
2023-03-31T08:39:37.266Z,93.10
2023-03-31T08:42:44.085Z,93.20
2023-03-31T08:45:36.171Z,92.80
2023-03-31T08:48:10.900Z,93.10
2023-03-31T08:50:45.791Z,93.50
2023-03-31T08:53:19.609Z,93.40
2023-03-31T08:55:52.002Z,93.50
2023-03-31T08:58:31.698Z,93.90
2023-03-31T09:01:02.048Z,93.80
2023-03-31T09:03:42.016Z,93.60
2023-03-31T09:06:17.388Z,93.80
2023-03-31T09:08:44.802Z,93.70
2023-03-31T09:11:13.898Z,94.20
2023-03-31T09:13:44.980Z,94.20
2023-03-31T09:16:17.701Z,93.80
2023-03-31T09:18:46.839Z,94.00
2023-03-31T09:21:27.652Z,94.20
2023-03-31T09:24:05.543Z,94.00
2023-03-31T09:26:49.136Z,94.20
2023-03-31T09:29:29.475Z,94.70
2023-03-31T09:32:02.190Z,94.70
2023-03-31T09:34:33.428Z,94.10
2023-03-31T09:37:00.343Z,94.10
2023-03-31T09:39:27.250Z,94.20
2023-03-31T09:41:55.556Z,94.10
2023-03-31T09:44:22.223Z,93.80
2023-03-31T09:46:50.293Z,93.20
2023-03-31T09:49:25.938Z,93.50
2023-03-31T09:52:04.540Z,93.10
2023-03-31T09:54:45.816Z,93.60
2023-03-31T09:57:33.794Z,91.30
2023-03-31T10:00:19.225Z,91.90
2023-03-31T10:02:51.011Z,91.80
2023-03-31T10:05:36.313Z,91.60
2023-03-31T10:08:17.645Z,92.00
2023-03-31T10:10:55.573Z,91.30
2023-03-31T10:13:50.684Z,90.60
2023-03-31T10:16:31.275Z,88.90
2023-03-31T10:19:22.494Z,88.90
2023-03-31T10:21:58.647Z,88.90
2023-03-31T10:24:27.704Z,90.10
2023-03-31T10:26:57.190Z,89.40
2023-03-31T10:29:33.072Z,90.40
2023-03-31T10:32:05.343Z,88.50
2023-03-31T10:34:32.312Z,88.40
2023-03-31T10:36:59.718Z,88.80
2023-03-31T10:39:31.458Z,86.60
2023-03-31T10:41:58.186Z,88.10
2023-03-31T10:44:37.686Z,85.00
2023-03-31T10:47:19.856Z,85.30
2023-03-31T10:49:51.427Z,85.40
2023-03-31T10:52:23.937Z,85.90
2023-03-31T10:54:56.440Z,86.50
2023-03-31T10:57:39.648Z,87.50
2023-03-31T11:00:32.163Z,86.80
2023-03-31T11:03:17.523Z,85.80
2023-03-31T11:05:57.658Z,85.80
2023-03-31T11:08:37.503Z,85.10
2023-03-31T11:11:19.004Z,85.20
2023-03-31T11:14:01.245Z,85.10
2023-03-31T11:16:41.858Z,85.60
2023-03-31T11:19:19.808Z,86.60
2023-03-31T11:22:12.291Z,86.90
2023-03-31T11:25:03.697Z,86.90
2023-03-31T11:27:52.210Z,87.10
2023-03-31T11:30:24.355Z,87.60
2023-03-31T11:33:23.063Z,87.20
2023-03-31T11:36:07.505Z,88.10
2023-03-31T11:38:54.197Z,87.50
2023-03-31T11:41:45.582Z,87.60
2023-03-31T11:44:15.327Z,87.30
2023-03-31T11:46:41.951Z,88.40
2023-03-31T11:49:24.306Z,88.40
2023-03-31T11:51:59.463Z,88.90
2023-03-31T11:54:58.517Z,89.30
2023-03-31T11:57:40.465Z,90.50
2023-03-31T12:00:22.622Z,89.60
2023-03-31T12:03:04.207Z,88.90
2023-03-31T12:05:33.646Z,89.10
2023-03-31T12:08:18.665Z,88.20
2023-03-31T12:10:51.396Z,88.00
2023-03-31T12:13:29.971Z,88.50
2023-03-31T12:16:02.505Z,87.00
2023-03-31T12:18:58.482Z,87.30
2023-03-31T12:21:27.264Z,87.00
2023-03-31T12:23:54.153Z,87.20
2023-03-31T12:26:51.209Z,87.50
2023-03-31T12:29:31.801Z,87.30
2023-03-31T12:32:02.250Z,87.60
2023-03-31T12:34:30.692Z,86.80
2023-03-31T12:37:19.671Z,86.60
2023-03-31T12:39:55.604Z,87.30
2023-03-31T12:43:06.625Z,87.60
2023-03-31T12:46:18.073Z,85.90
2023-03-31T12:48:54.003Z,88.00
2023-03-31T12:51:44.680Z,87.60
2023-03-31T12:54:36.397Z,88.30
2023-03-31T12:57:04.927Z,88.50
2023-03-31T12:59:34.560Z,88.30
2023-03-31T13:02:10.549Z,87.80
2023-03-31T13:04:38.472Z,86.80
2023-03-31T13:07:25.399Z,87.80
2023-03-31T13:10:24.731Z,88.50
2023-03-31T13:13:04.482Z,87.60
2023-03-31T13:15:31.987Z,87.70
2023-03-31T13:18:04.630Z,88.00
2023-03-31T13:20:37.444Z,88.40
2023-03-31T13:23:21.570Z,88.40
2023-03-31T13:25:55.949Z,88.50
2023-03-31T13:28:22.512Z,89.30
2023-03-31T13:30:55.678Z,90.10
2023-03-31T13:33:59.474Z,90.20
2023-03-31T13:36:31.921Z,89.80
2023-03-31T13:39:36.349Z,90.90
2023-03-31T13:42:24.771Z,91.40
2023-03-31T13:44:55.526Z,91.50
2023-03-31T13:47:58.635Z,91.80
2023-03-31T13:50:50.736Z,91.80
2023-03-31T13:53:20.439Z,91.80
2023-03-31T13:55:59.676Z,91.90
2023-03-31T13:58:57.302Z,91.10
2023-03-31T14:01:54.522Z,91.10
2023-03-31T14:04:53.196Z,91.00
2023-03-31T14:07:55.067Z,90.90
2023-03-31T14:10:37.187Z,90.70
2023-03-31T14:13:09.596Z,90.50
2023-03-31T14:15:39.975Z,90.50
2023-03-31T14:18:08.564Z,90.80
2023-03-31T14:21:03.087Z,91.10
2023-03-31T14:23:53.676Z,91.10
2023-03-31T14:26:31.664Z,90.90
2023-03-31T14:29:11.121Z,91.20
2023-03-31T14:31:55.696Z,90.90
2023-03-31T14:34:32.218Z,90.90
2023-03-31T14:37:17.641Z,91.10
2023-03-31T14:39:55.050Z,90.90
2023-03-31T14:42:26.937Z,90.90
2023-03-31T14:44:58.425Z,91.00
2023-03-31T14:47:29.123Z,91.50
2023-03-31T14:50:07.811Z,91.20
2023-03-31T14:52:35.708Z,91.50
2023-03-31T14:55:02.444Z,91.10
2023-03-31T14:57:35.878Z,91.10
2023-03-31T15:00:09.766Z,91.00
2023-03-31T15:02:45.064Z,91.00
2023-03-31T15:05:28.073Z,90.70
2023-03-31T15:07:59.932Z,90.90
2023-03-31T15:10:33.018Z,91.10
2023-03-31T15:13:01.620Z,91.10
2023-03-31T15:15:28.287Z,90.90
2023-03-31T15:17:54.985Z,91.10
2023-03-31T15:20:36.316Z,90.70
2023-03-31T15:23:05.520Z,90.60
2023-03-31T15:25:41.937Z,90.60
2023-03-31T15:28:13.385Z,90.20
2023-03-31T15:30:40.351Z,90.90
2023-03-31T15:33:19.063Z,90.80
2023-03-31T15:35:46.926Z,90.80
2023-03-31T15:38:18.304Z,90.60
2023-03-31T15:40:50.016Z,91.50
2023-03-31T15:43:25.566Z,91.20
2023-03-31T15:45:54.289Z,91.10
2023-03-31T15:48:54.145Z,91.10
2023-03-31T15:51:37.134Z,91.00
2023-03-31T15:54:14.901Z,90.80
2023-03-31T15:56:45.260Z,91.40
2023-03-31T15:59:37.905Z,91.50
2023-03-31T16:02:13.448Z,91.00
2023-03-31T16:04:40.593Z,91.40
2023-03-31T16:07:18.385Z,91.70
2023-03-31T16:09:59.470Z,91.80
2023-03-31T16:12:54.784Z,91.50
2023-03-31T16:15:37.735Z,92.00
2023-03-31T16:18:12.952Z,92.50
2023-03-31T16:20:45.821Z,92.30
2023-03-31T16:23:16.673Z,92.40
2023-03-31T16:25:44.166Z,93.00
2023-03-31T16:28:16.546Z,92.20
2023-03-31T16:30:44.968Z,92.20
2023-03-31T16:33:17.626Z,92.50
2023-03-31T16:35:51.026Z,92.30
2023-03-31T16:38:18.266Z,92.50
2023-03-31T16:40:56.058Z,92.60
2023-03-31T16:43:26.441Z,92.90
2023-03-31T16:45:56.055Z,92.90
2023-03-31T16:48:24.946Z,92.90
2023-03-31T16:50:54.278Z,92.90
2023-03-31T16:53:23.424Z,92.80
2023-03-31T16:55:50.584Z,92.60
2023-03-31T16:58:17.950Z,92.70
2023-03-31T17:00:45.711Z,93.10
2023-03-31T17:03:14.913Z,93.40
2023-03-31T17:05:43.724Z,93.10
2023-03-31T17:08:12.041Z,93.40
2023-03-31T17:10:40.058Z,93.10
2023-03-31T17:13:08.250Z,93.40
2023-03-31T17:15:36.414Z,93.80
2023-03-31T17:18:04.419Z,93.60
2023-03-31T17:20:31.415Z,93.70
2023-03-31T17:22:58.694Z,93.50
2023-03-31T17:25:25.619Z,93.40
2023-03-31T17:27:52.509Z,93.20
2023-03-31T17:30:19.266Z,93.70
2023-03-31T17:32:46.365Z,93.60
2023-03-31T17:35:20.363Z,93.70
2023-03-31T17:37:53.651Z,93.90
2023-03-31T17:40:21.408Z,94.00
2023-03-31T17:42:48.090Z,94.10
2023-03-31T17:45:14.947Z,94.30
2023-03-31T17:47:42.623Z,94.10
2023-03-31T17:50:10.149Z,94.40
2023-03-31T17:52:36.879Z,94.00
2023-03-31T17:55:04.559Z,94.00
2023-03-31T17:57:32.738Z,93.90
2023-03-31T17:59:59.463Z,93.90
2023-03-31T18:02:26.175Z,94.10
2023-03-31T18:04:53.379Z,93.90
2023-03-31T18:07:23.063Z,94.10
2023-03-31T18:09:49.803Z,94.20
2023-03-31T18:12:16.482Z,94.50
2023-03-31T18:14:43.217Z,94.20
2023-03-31T18:17:14.677Z,94.10
2023-03-31T18:19:42.763Z,93.70
2023-03-31T18:22:10.603Z,94.30
2023-03-31T18:24:38.395Z,94.20
2023-03-31T18:27:05.541Z,94.10
2023-03-31T18:29:32.504Z,93.90
2023-03-31T18:31:59.665Z,93.80
2023-03-31T18:34:26.694Z,93.80
2023-03-31T18:36:53.489Z,94.10
2023-03-31T18:39:20.329Z,93.90
2023-03-31T18:41:48.547Z,94.00
2023-03-31T18:44:18.254Z,93.80
2023-03-31T18:46:45.600Z,93.80
2023-03-31T18:49:12.837Z,94.30
2023-03-31T18:51:39.496Z,94.20
2023-03-31T18:54:06.400Z,94.20
2023-03-31T18:56:33.266Z,94.10
2023-03-31T18:58:59.959Z,94.10
2023-03-31T19:01:27.135Z,94.40
2023-03-31T19:03:53.945Z,94.30
2023-03-31T19:06:22.357Z,94.80
2023-03-31T19:08:49.008Z,94.50
2023-03-31T19:11:17.057Z,94.40
2023-03-31T19:13:44.284Z,94.30
2023-03-31T19:16:12.440Z,94.30
2023-03-31T19:18:39.641Z,94.00
2023-03-31T19:21:06.390Z,93.90
2023-03-31T19:23:34.025Z,93.70
2023-03-31T19:26:00.784Z,93.90
2023-03-31T19:28:27.896Z,93.90
2023-03-31T19:30:56.534Z,94.00
2023-03-31T19:33:24.018Z,93.80
2023-03-31T19:35:51.113Z,93.90
2023-03-31T19:38:19.222Z,93.80
2023-03-31T19:40:45.821Z,94.20
2023-03-31T19:43:20.650Z,94.30
2023-03-31T19:45:48.765Z,94.00
2023-03-31T19:48:16.553Z,94.00
2023-03-31T19:50:54.486Z,93.90
2023-03-31T19:53:21.699Z,94.10
2023-03-31T19:56:03.035Z,94.40
2023-03-31T19:58:30.855Z,94.30
2023-03-31T20:00:58.170Z,94.00
2023-03-31T20:03:27.188Z,94.30
2023-03-31T20:06:06.810Z,94.40
2023-03-31T20:08:34.690Z,94.60
2023-03-31T20:11:03.846Z,94.80
2023-03-31T20:13:32.478Z,94.50
2023-03-31T20:16:01.859Z,94.90
2023-03-31T20:18:29.214Z,94.80
2023-03-31T20:21:23.398Z,94.70
2023-03-31T20:23:51.071Z,94.80
2023-03-31T20:26:20.771Z,95.30
2023-03-31T20:28:48.328Z,95.20
2023-03-31T20:31:18.815Z,95.20
2023-03-31T20:33:46.090Z,95.10
2023-03-31T20:36:18.517Z,95.10
2023-03-31T20:38:47.376Z,95.10
2023-03-31T20:41:14.685Z,95.00
2023-03-31T20:43:41.737Z,95.10
2023-03-31T20:46:09.082Z,94.90
2023-03-31T20:48:40.563Z,94.80
2023-03-31T20:51:12.117Z,94.80
2023-03-31T20:53:41.965Z,95.30
2023-03-31T20:56:14.759Z,95.30
2023-03-31T20:58:43.906Z,95.00
2023-03-31T21:01:11.542Z,95.60
2023-03-31T21:03:38.542Z,95.30
2023-03-31T21:06:11.432Z,95.00
2023-03-31T21:08:39.582Z,95.20
2023-03-31T21:11:06.375Z,95.40
2023-03-31T21:13:33.607Z,95.20
2023-03-31T21:16:01.192Z,95.40
2023-03-31T21:18:29.472Z,95.30
2023-03-31T21:20:58.461Z,95.20
2023-03-31T21:23:26.225Z,95.30
2023-03-31T21:25:55.439Z,94.80
2023-03-31T21:28:25.777Z,95.10
2023-03-31T21:30:54.575Z,95.40
2023-03-31T21:33:22.754Z,95.50
2023-03-31T21:35:49.919Z,95.70
2023-03-31T21:38:16.961Z,95.50
2023-03-31T21:40:44.149Z,95.60
2023-03-31T21:43:11.216Z,95.50
2023-03-31T21:45:39.239Z,95.30
2023-03-31T21:48:08.207Z,95.60
2023-03-31T21:50:36.371Z,95.70
2023-03-31T21:53:04.856Z,95.40
2023-03-31T21:55:33.111Z,95.50
2023-03-31T21:58:00.969Z,95.40
2023-03-31T22:00:28.009Z,95.30
2023-03-31T22:03:06.379Z,95.00
2023-03-31T22:05:42.082Z,95.50
2023-03-31T22:08:08.727Z,95.40
2023-03-31T22:10:35.330Z,95.40
2023-03-31T22:13:02.054Z,95.50
2023-03-31T22:15:28.758Z,95.30
2023-03-31T22:17:56.314Z,95.50
2023-03-31T22:20:23.416Z,95.30
2023-03-31T22:22:50.225Z,95.40
2023-03-31T22:25:16.881Z,95.20
2023-03-31T22:27:43.563Z,95.30
2023-03-31T22:30:10.952Z,95.60
2023-03-31T22:32:37.605Z,95.70
2023-03-31T22:35:04.535Z,95.90
2023-03-31T22:37:31.567Z,95.80
2023-03-31T22:39:58.261Z,95.70
2023-03-31T22:42:24.923Z,95.80
2023-03-31T22:44:51.589Z,95.50
2023-03-31T22:47:18.192Z,95.90
2023-03-31T22:49:44.864Z,95.60
2023-03-31T22:52:11.668Z,95.80
2023-03-31T22:54:40.092Z,95.80
2023-03-31T22:57:07.585Z,95.80
2023-03-31T22:59:35.055Z,95.80
2023-03-31T23:02:01.779Z,95.30
2023-03-31T23:04:28.562Z,95.40
2023-03-31T23:06:55.823Z,95.30
2023-03-31T23:09:23.804Z,95.60
2023-03-31T23:11:51.217Z,95.80
2023-03-31T23:14:18.039Z,96.10
2023-03-31T23:16:44.968Z,96.20
2023-03-31T23:19:12.267Z,96.20
2023-03-31T23:21:38.925Z,95.90
2023-03-31T23:24:06.113Z,95.60
2023-03-31T23:26:33.794Z,95.20
2023-03-31T23:29:00.644Z,95.30
2023-03-31T23:31:33.162Z,95.20
2023-03-31T23:34:00.426Z,95.30
2023-03-31T23:36:27.690Z,95.30
2023-03-31T23:38:55.763Z,95.30
2023-03-31T23:41:22.895Z,95.40
2023-03-31T23:43:51.181Z,95.40
2023-03-31T23:46:18.050Z,95.10
2023-03-31T23:48:45.340Z,95.20
2023-03-31T23:51:12.676Z,95.30
2023-03-31T23:53:39.486Z,95.10
2023-03-31T23:56:09.571Z,95.20
2023-03-31T23:58:37.412Z,95.10
